Malcolm Mc Kinnon Airport
KSSI : now visible

Airfield :











YOU CAN JOIN US ON...

 
LOGIN :

Register | Disclaimer

   EN    FR    IT 

 









Legend :    VFR   Marginal VFR   IFR   Intensive IFR   Very Intensive IFR
Visi :
Ceiling :
>= 8 km
>= 3000ft
5 to 8 km
1000 to 3000 ft
1500m to 5 km
500 to 1000 ft
800 to 1500m
200 to 500 ft
< 800m
< 200 ft
Symbols :   Thunderstorms  Fog  Heavy snow  Heavy precipitations  Wind > 20 kt






- Airport Elevation : 19 ft


KSSI - Malcolm Mc Kinnon

CURRENT METAR :
  • 152323Z AUTO 09007KT 10SM BKN015 BKN120 23/21 A2999 RMK AO2 T02330206

EXPIRED METARs :
  • 152253Z AUTO 08006KT 10SM FEW012 SCT120 23/20 A2998 RMK AO2 SLP155 T02280200
  • 152240Z AUTO 08007KT 10SM FEW012 SCT060 BKN120 23/21 A2998 RMK AO2 T02280206
  • 152153Z AUTO 07006KT 10SM BKN010 OVC060 23/21 A3000 RMK AO2 RAE32 SLP159 P0000 T02280206
  • 152106Z AUTO 05006KT 10SM -RA BKN011 23/21 A3000 RMK AO2 P0000 T02280206
  • 152053Z AUTO 05005KT 10SM -RA FEW011 BKN110 22/21 A3000 RMK AO2 SLP161 P0003 60004 T02220206 56017

TAF KSSI
Valid from the 15 at 22:00 until the 16 at 18:00 UTC


152156Z 1522/1618 06006KT P6SM VCSH SCT008 BKN011 OVC050
TEMPO 1522/1524 BKN008
FM160200 10007KT 5SM -SHRA BR BKN012 OVC025
FM160700 18008KT 4SM -RA BR OVC015
FM161200 23010G17KT 5SM SHRA BKN015 OVC035



MET'MAP, your aeronautical weather chart ! - Copyright ORBIFLY December 2007 - Disclaimer

ORBIFLY MET'MAP TEAM :

Programming & Development : Alexandra Zaïnal
Concept & Development : Baudouin d'Aumeries
Co-Development & Prog : Marc-Olivier Méhu
Technical & hardware support : Manuel Goepfert

Contact : metmap@orbifly.com




SOURCES & CREDITS :

   NOAA       Earth
Advisory